createdAt,value
2022-12-31T00:00:00.666Z,0.2
2022-12-31T00:15:00.664Z,0.3
2022-12-31T00:30:04.353Z,0.3
2022-12-31T00:45:00.715Z,0.4
2022-12-31T01:00:00.668Z,0.5
2022-12-31T01:15:00.641Z,0.5
2022-12-31T01:30:00.711Z,0.5
2022-12-31T01:45:00.697Z,0.5
2022-12-31T02:00:00.686Z,0.6
2022-12-31T02:15:00.611Z,0.7
2022-12-31T02:30:00.623Z,0.9
2022-12-31T02:45:00.687Z,0.9
2022-12-31T03:00:00.664Z,0.9
2022-12-31T03:15:00.644Z,0.9
2022-12-31T03:30:00.663Z,0.8
2022-12-31T03:45:00.694Z,0.7
2022-12-31T04:00:00.641Z,0.7
2022-12-31T04:15:00.639Z,0.7
2022-12-31T04:30:00.654Z,0.6
2022-12-31T04:45:00.715Z,0.6
2022-12-31T05:00:00.628Z,0.8
2022-12-31T05:15:00.633Z,0.8
2022-12-31T05:30:00.626Z,0.8
2022-12-31T05:45:00.704Z,0.9
2022-12-31T06:00:00.703Z,0.9
2022-12-31T06:15:00.641Z,0.9
2022-12-31T06:30:00.671Z,1.0
2022-12-31T06:45:00.691Z,1.1
2022-12-31T07:00:00.653Z,1.2
2022-12-31T07:15:00.635Z,1.5
2022-12-31T07:30:00.659Z,1.6
2022-12-31T07:45:00.757Z,1.8
2022-12-31T08:00:00.635Z,2.2
2022-12-31T08:15:00.652Z,2.7
2022-12-31T08:30:00.626Z,3.2
2022-12-31T08:45:00.717Z,3.7
2022-12-31T09:00:00.664Z,4.4
2022-12-31T09:15:00.645Z,4.9
2022-12-31T09:30:00.650Z,4.9
2022-12-31T09:45:00.681Z,5.0
2022-12-31T10:00:00.652Z,5.1
2022-12-31T10:15:00.628Z,5.3
2022-12-31T10:30:00.601Z,5.4
2022-12-31T10:45:00.698Z,5.7
2022-12-31T11:00:00.661Z,5.9
2022-12-31T11:15:00.643Z,6.2
2022-12-31T11:30:00.622Z,6.5
2022-12-31T11:45:00.634Z,6.9
2022-12-31T12:00:00.713Z,7.5
2022-12-31T12:15:00.650Z,8.2
2022-12-31T12:30:00.662Z,8.7
2022-12-31T12:45:00.755Z,9.0
2022-12-31T13:00:00.654Z,9.1
2022-12-31T13:15:00.677Z,9.1
2022-12-31T13:30:00.652Z,9.4
2022-12-31T13:45:00.808Z,9.7
2022-12-31T14:00:00.656Z,10.0
2022-12-31T14:15:00.649Z,9.9
2022-12-31T14:30:00.754Z,9.6
2022-12-31T14:45:00.640Z,9.1
2022-12-31T15:00:00.604Z,8.5
2022-12-31T15:15:00.612Z,8.0
2022-12-31T15:30:00.660Z,7.3
2022-12-31T15:45:00.692Z,6.9
2022-12-31T16:00:00.596Z,6.3
2022-12-31T16:15:00.636Z,5.7
2022-12-31T16:30:02.703Z,5.3
2022-12-31T16:45:00.657Z,4.9
2022-12-31T17:00:00.728Z,4.6
2022-12-31T17:15:00.664Z,4.3
2022-12-31T17:30:00.783Z,4.1
2022-12-31T17:45:00.665Z,3.9
2022-12-31T18:00:00.674Z,3.6
2022-12-31T18:15:00.753Z,3.3
2022-12-31T18:30:04.928Z,3.1
2022-12-31T18:45:00.678Z,3.0
2022-12-31T19:00:00.635Z,2.7
2022-12-31T19:15:00.653Z,2.6
2022-12-31T19:30:00.749Z,2.5
2022-12-31T19:45:00.659Z,2.4
2022-12-31T20:00:00.633Z,2.4
2022-12-31T20:15:00.644Z,2.2
2022-12-31T20:30:00.655Z,2.1
2022-12-31T20:45:00.699Z,2.1
2022-12-31T21:00:00.609Z,2.1
2022-12-31T21:15:00.628Z,2.1
2022-12-31T21:30:19.673Z,2.1
2022-12-31T21:45:00.656Z,2.1
2022-12-31T22:00:24.293Z,1.9
2022-12-31T22:15:13.923Z,1.7
2022-12-31T22:30:00.741Z,1.6
2022-12-31T22:45:00.669Z,1.3
2022-12-31T23:00:00.899Z,1.2
2022-12-31T23:15:00.613Z,1.1
2022-12-31T23:30:00.603Z,1.0
2022-12-31T23:45:00.655Z,1.1
